createdAt,value
2022-10-29T00:00:24.050Z,6.68
2022-10-29T00:02:51.251Z,6.78
2022-10-29T00:05:18.529Z,5.93
2022-10-29T00:07:45.716Z,6.70
2022-10-29T00:10:12.915Z,5.93
2022-10-29T00:12:40.207Z,8.10
2022-10-29T00:15:07.571Z,6.88
2022-10-29T00:17:35.127Z,7.60
2022-10-29T00:20:02.320Z,6.38
2022-10-29T00:22:29.515Z,6.88
2022-10-29T00:24:56.646Z,7.15
2022-10-29T00:27:23.915Z,7.40
2022-10-29T00:29:51.049Z,6.85
2022-10-29T00:32:18.306Z,6.78
2022-10-29T00:34:45.573Z,6.18
2022-10-29T00:37:12.719Z,7.65
2022-10-29T00:39:39.856Z,7.15
2022-10-29T00:42:07.005Z,7.07
2022-10-29T00:44:38.934Z,7.50
2022-10-29T00:47:14.935Z,8.35
2022-10-29T00:49:42.644Z,6.75
2022-10-29T00:52:10.923Z,7.72
2022-10-29T00:54:40.280Z,6.28
2022-10-29T00:57:12.397Z,6.13
2022-10-29T00:59:39.897Z,6.55
2022-10-29T01:02:07.158Z,6.80
2022-10-29T01:04:34.917Z,6.25
2022-10-29T01:07:02.396Z,6.22
2022-10-29T01:09:29.524Z,6.55
2022-10-29T01:12:05.711Z,7.00
2022-10-29T01:14:47.969Z,6.25
2022-10-29T01:17:21.320Z,6.90
2022-10-29T01:19:48.551Z,5.90
2022-10-29T01:22:20.927Z,6.15
2022-10-29T01:24:48.056Z,5.82
2022-10-29T01:27:33.713Z,6.15
2022-10-29T01:30:11.724Z,6.25
2022-10-29T01:32:59.026Z,6.45
2022-10-29T01:35:49.442Z,7.15
2022-10-29T01:38:22.760Z,6.45
2022-10-29T01:40:52.679Z,5.78
2022-10-29T01:43:28.513Z,5.93
2022-10-29T01:45:59.332Z,5.47
2022-10-29T01:48:34.530Z,6.47
2022-10-29T01:51:04.466Z,6.50
2022-10-29T01:53:32.290Z,6.85
2022-10-29T01:55:59.469Z,5.88
2022-10-29T01:58:26.692Z,6.97
2022-10-29T02:01:00.106Z,6.18
2022-10-29T02:03:46.238Z,6.05
2022-10-29T02:06:13.359Z,5.95
2022-10-29T02:08:46.529Z,6.43
2022-10-29T02:11:20.768Z,6.07
2022-10-29T02:13:51.300Z,6.22
2022-10-29T02:16:18.775Z,6.93
2022-10-29T02:18:47.195Z,7.00
2022-10-29T02:21:20.858Z,6.13
2022-10-29T02:23:48.408Z,6.45
2022-10-29T02:26:16.099Z,6.78
2022-10-29T02:28:43.515Z,6.28
2022-10-29T02:31:11.168Z,7.05
2022-10-29T02:33:38.316Z,8.15
2022-10-29T02:36:05.721Z,6.40
2022-10-29T02:38:32.879Z,7.20
2022-10-29T02:41:00.022Z,8.57
2022-10-29T02:43:27.143Z,8.52
2022-10-29T02:46:14.584Z,7.90
2022-10-29T02:48:41.794Z,7.60
2022-10-29T02:51:09.130Z,7.78
2022-10-29T02:53:36.368Z,7.50
2022-10-29T02:56:04.056Z,7.93
2022-10-29T02:58:31.207Z,7.90
2022-10-29T03:00:58.429Z,8.70
2022-10-29T03:03:25.663Z,8.60
2022-10-29T03:05:52.998Z,9.07
2022-10-29T03:08:20.442Z,9.05
2022-10-29T03:10:47.591Z,9.32
2022-10-29T03:13:14.904Z,9.30
2022-10-29T03:15:44.350Z,8.05
2022-10-29T03:18:11.792Z,9.85
2022-10-29T03:20:39.075Z,9.52
2022-10-29T03:23:06.258Z,9.77
2022-10-29T03:25:33.520Z,9.25
2022-10-29T03:28:00.642Z,8.82
2022-10-29T03:30:27.763Z,8.18
2022-10-29T03:32:55.299Z,8.63
2022-10-29T03:35:22.648Z,8.60
2022-10-29T03:37:51.073Z,9.07
2022-10-29T03:40:18.805Z,8.63
2022-10-29T03:42:46.222Z,9.75
2022-10-29T03:45:13.420Z,7.72
2022-10-29T03:47:40.599Z,9.50
2022-10-29T03:50:08.078Z,10.35
2022-10-29T03:52:35.215Z,9.43
2022-10-29T03:55:02.551Z,9.35
2022-10-29T03:57:29.724Z,9.13
2022-10-29T03:59:56.924Z,10.90
2022-10-29T04:02:24.462Z,12.55
2022-10-29T04:04:51.753Z,11.00
2022-10-29T04:07:18.995Z,9.65
2022-10-29T04:09:46.130Z,9.38
2022-10-29T04:12:13.308Z,10.98
2022-10-29T04:14:45.380Z,9.82
2022-10-29T04:17:13.879Z,10.50
2022-10-29T04:19:41.306Z,10.80
2022-10-29T04:28:41.232Z,10.50
2022-10-29T04:30:30.405Z,10.73
2022-10-29T04:33:01.060Z,13.13
2022-10-29T04:35:28.814Z,11.57
2022-10-29T04:37:56.326Z,11.38
2022-10-29T04:40:24.535Z,11.60
2022-10-29T04:42:51.939Z,11.80
2022-10-29T04:45:19.257Z,13.32
2022-10-29T04:47:46.768Z,12.07
2022-10-29T04:50:13.909Z,14.07
2022-10-29T04:52:41.116Z,12.77
2022-10-29T04:55:08.471Z,13.32
2022-10-29T04:57:35.601Z,16.55
2022-10-29T05:00:02.915Z,15.38
2022-10-29T05:02:30.055Z,16.17
2022-10-29T05:04:57.241Z,17.30
2022-10-29T05:07:24.439Z,17.77
2022-10-29T05:09:51.707Z,18.60
2022-10-29T05:12:18.840Z,16.35
2022-10-29T05:14:46.023Z,16.42
2022-10-29T05:17:13.215Z,17.58
2022-10-29T05:19:40.388Z,17.23
2022-10-29T05:22:07.577Z,17.13
2022-10-29T05:24:34.760Z,15.98
2022-10-29T05:27:02.261Z,15.52
2022-10-29T05:29:29.550Z,17.08
2022-10-29T05:31:56.677Z,15.80
2022-10-29T05:34:23.842Z,16.98
2022-10-29T05:36:51.211Z,19.15
2022-10-29T05:39:18.453Z,17.27
2022-10-29T05:41:46.603Z,19.50
2022-10-29T05:44:13.943Z,17.75
2022-10-29T05:46:41.096Z,19.77
2022-10-29T05:49:08.240Z,20.05
2022-10-29T05:51:35.380Z,19.85
2022-10-29T05:54:02.537Z,20.00
2022-10-29T05:56:29.728Z,20.67
2022-10-29T05:58:56.865Z,17.52
2022-10-29T06:01:24.041Z,21.60
2022-10-29T06:03:54.171Z,22.30
2022-10-29T06:06:21.756Z,21.42
2022-10-29T06:08:49.208Z,23.08
2022-10-29T06:11:16.363Z,23.17
2022-10-29T06:13:43.617Z,22.63
2022-10-29T06:16:10.824Z,23.25
2022-10-29T06:18:37.971Z,23.98
2022-10-29T06:21:05.252Z,24.40
2022-10-29T06:23:32.473Z,24.00
2022-10-29T06:26:01.360Z,24.55
2022-10-29T06:28:34.501Z,24.77
2022-10-29T06:31:02.216Z,24.25
2022-10-29T06:33:29.383Z,25.95
2022-10-29T06:35:59.911Z,25.83
2022-10-29T06:38:27.109Z,24.73
2022-10-29T06:40:54.370Z,24.52
2022-10-29T06:43:21.700Z,26.08
2022-10-29T06:45:51.992Z,23.90
2022-10-29T06:48:22.030Z,23.20
2022-10-29T06:50:50.198Z,24.55
2022-10-29T06:53:19.054Z,25.20
2022-10-29T06:55:46.220Z,24.10
2022-10-29T06:58:14.190Z,24.45
2022-10-29T07:00:42.038Z,23.00
2022-10-29T07:03:15.587Z,22.80
2022-10-29T07:05:42.758Z,21.98
2022-10-29T07:08:10.112Z,23.42
2022-10-29T07:10:37.368Z,24.10
2022-10-29T07:13:04.830Z,24.30
2022-10-29T07:15:32.211Z,24.33
2022-10-29T07:18:03.375Z,23.23
2022-10-29T07:20:31.968Z,22.75
2022-10-29T07:23:00.436Z,24.60
2022-10-29T07:25:28.191Z,24.30
2022-10-29T07:27:56.209Z,24.02
2022-10-29T07:30:23.616Z,23.83
2022-10-29T07:32:50.799Z,23.52
2022-10-29T07:35:17.943Z,23.65
2022-10-29T07:37:45.087Z,23.42
2022-10-29T07:40:12.553Z,24.48
2022-10-29T07:42:39.674Z,22.25
2022-10-29T07:45:07.117Z,22.02
2022-10-29T07:47:34.395Z,23.08
2022-10-29T07:50:01.555Z,22.50
2022-10-29T07:52:28.683Z,21.45
2022-10-29T07:54:55.860Z,23.27
2022-10-29T07:57:22.988Z,21.33
2022-10-29T07:59:51.955Z,22.55
2022-10-29T08:02:19.198Z,21.33
2022-10-29T08:04:46.378Z,21.65
2022-10-29T08:07:13.522Z,22.95
2022-10-29T08:09:40.799Z,21.77
2022-10-29T08:12:11.531Z,24.27
2022-10-29T08:14:38.719Z,22.95
2022-10-29T08:17:05.868Z,21.63
2022-10-29T08:19:33.336Z,20.92
2022-10-29T08:22:00.454Z,23.48
2022-10-29T08:24:27.620Z,24.42
2022-10-29T08:26:54.747Z,21.63
2022-10-29T08:29:21.939Z,22.42
2022-10-29T08:31:49.087Z,21.08
2022-10-29T08:34:16.449Z,21.25
2022-10-29T08:36:43.657Z,20.73
2022-10-29T08:39:10.806Z,19.88
2022-10-29T08:41:40.962Z,19.23
2022-10-29T08:44:26.789Z,19.65
2022-10-29T08:49:22.628Z,18.38
2022-10-29T08:52:19.898Z,17.50
2022-10-29T08:54:50.445Z,17.48
2022-10-29T08:57:20.830Z,18.45
2022-10-29T09:00:20.602Z,17.10
2022-10-29T09:02:47.952Z,16.15
2022-10-29T09:05:16.161Z,16.08
2022-10-29T09:07:43.338Z,16.92
2022-10-29T09:10:10.535Z,16.45
2022-10-29T09:12:53.217Z,15.82
2022-10-29T09:15:28.203Z,15.35
2022-10-29T09:18:14.296Z,17.45
2022-10-29T09:20:53.297Z,15.40
2022-10-29T09:23:36.987Z,15.77
2022-10-29T09:26:05.125Z,14.98
2022-10-29T09:28:47.615Z,16.42
2022-10-29T09:31:17.703Z,16.00
2022-10-29T09:33:46.594Z,17.25
2022-10-29T09:36:18.329Z,17.08
2022-10-29T09:39:04.804Z,15.20
2022-10-29T09:41:33.083Z,15.75
2022-10-29T09:44:03.424Z,16.65
2022-10-29T09:46:30.702Z,16.83
2022-10-29T09:49:04.204Z,16.13
2022-10-29T09:51:40.562Z,15.77
2022-10-29T09:54:07.994Z,17.00
2022-10-29T09:56:35.139Z,15.77
2022-10-29T09:59:12.745Z,15.73
2022-10-29T10:01:40.603Z,15.77
2022-10-29T10:04:14.302Z,15.68
2022-10-29T10:07:00.411Z,15.80
2022-10-29T10:09:27.876Z,15.35
2022-10-29T10:11:59.056Z,15.35
2022-10-29T10:14:27.711Z,15.32
2022-10-29T10:16:58.957Z,14.35
2022-10-29T10:19:35.104Z,14.63
2022-10-29T10:22:03.660Z,14.20
2022-10-29T10:24:30.789Z,14.18
2022-10-29T10:26:57.927Z,15.70
2022-10-29T10:29:25.903Z,15.90
2022-10-29T10:31:56.087Z,14.38
2022-10-29T10:34:27.188Z,13.38
2022-10-29T10:37:15.331Z,13.18
2022-10-29T10:39:43.906Z,12.43
2022-10-29T10:42:17.112Z,11.90
2022-10-29T10:44:47.915Z,12.73
2022-10-29T10:47:17.432Z,10.95
2022-10-29T10:49:44.673Z,11.25
2022-10-29T10:52:31.220Z,12.57
2022-10-29T10:55:06.578Z,10.65
2022-10-29T11:00:16.119Z,11.10
2022-10-29T11:02:54.061Z,9.50
2022-10-29T11:05:22.896Z,9.38
2022-10-29T11:07:58.390Z,9.45
2022-10-29T11:10:34.192Z,9.60
2022-10-29T11:13:02.507Z,8.60
2022-10-29T11:15:38.748Z,9.07
2022-10-29T11:18:12.056Z,8.23
2022-10-29T11:20:40.319Z,8.93
2022-10-29T11:23:26.290Z,8.73
2022-10-29T11:26:13.788Z,8.13
2022-10-29T11:28:48.325Z,7.95
2022-10-29T11:31:15.700Z,7.53
2022-10-29T11:33:49.585Z,7.82
2022-10-29T11:36:21.888Z,7.30
2022-10-29T11:38:51.462Z,8.23
2022-10-29T11:41:34.906Z,8.40
2022-10-29T11:44:02.079Z,7.43
2022-10-29T11:46:40.199Z,8.13
2022-10-29T11:49:07.359Z,7.38
2022-10-29T11:51:41.857Z,8.30
2022-10-29T11:54:28.973Z,8.00
2022-10-29T11:57:01.333Z,7.35
2022-10-29T11:59:38.875Z,8.90
2022-10-29T12:02:24.620Z,8.52
2022-10-29T12:04:59.917Z,9.43
2022-10-29T12:07:32.996Z,8.32
2022-10-29T12:10:19.034Z,8.07
2022-10-29T12:13:03.824Z,8.63
2022-10-29T12:15:39.647Z,8.27
2022-10-29T12:18:18.914Z,8.15
2022-10-29T12:20:51.834Z,8.25
2022-10-29T12:23:37.556Z,8.98
2022-10-29T12:26:07.723Z,9.20
2022-10-29T12:28:39.669Z,8.95
2022-10-29T12:31:06.791Z,9.10
2022-10-29T12:33:43.038Z,9.35
2022-10-29T12:36:33.336Z,9.65
2022-10-29T12:39:00.663Z,8.32
2022-10-29T12:41:32.329Z,8.70
2022-10-29T12:44:03.852Z,9.48
2022-10-29T12:46:39.042Z,8.27
2022-10-29T12:51:33.222Z,8.48
2022-10-29T12:54:00.348Z,8.80
2022-10-29T12:56:28.174Z,8.35
2022-10-29T12:58:59.730Z,9.27
2022-10-29T13:01:50.008Z,7.53
2022-10-29T13:04:30.857Z,8.65
2022-10-29T13:07:02.958Z,9.00
2022-10-29T13:09:35.901Z,9.13
2022-10-29T13:12:10.065Z,9.43
2022-10-29T13:14:50.777Z,9.40
2022-10-29T13:17:24.161Z,8.32
2022-10-29T13:19:59.956Z,8.73
2022-10-29T13:22:30.168Z,9.60
2022-10-29T13:25:15.728Z,9.63
2022-10-29T13:27:42.901Z,9.23
2022-10-29T13:30:22.375Z,9.43
2022-10-29T13:32:49.524Z,10.27
2022-10-29T13:35:16.670Z,9.52
2022-10-29T13:37:46.790Z,9.50
2022-10-29T13:40:23.071Z,9.45
2022-10-29T13:42:56.415Z,10.57
2022-10-29T13:45:23.868Z,10.00
2022-10-29T13:47:51.176Z,10.32
2022-10-29T13:50:18.899Z,9.38
2022-10-29T13:52:47.262Z,10.57
2022-10-29T13:55:18.206Z,9.60
2022-10-29T13:57:45.338Z,9.73
2022-10-29T14:00:12.459Z,10.10
2022-10-29T14:02:54.884Z,10.07
2022-10-29T14:05:43.648Z,11.05
2022-10-29T14:08:19.506Z,10.93
2022-10-29T14:10:48.268Z,11.20
2022-10-29T14:13:18.023Z,11.15
2022-10-29T14:16:02.421Z,10.55
2022-10-29T14:18:31.554Z,11.70
2022-10-29T14:20:59.715Z,11.18
2022-10-29T14:23:27.534Z,10.35
2022-10-29T14:25:55.872Z,11.73
2022-10-29T14:28:26.807Z,12.93
2022-10-29T14:31:12.576Z,11.48
2022-10-29T14:36:12.014Z,10.43
2022-10-29T14:38:59.431Z,10.60
2022-10-29T14:41:27.123Z,9.95
2022-10-29T14:44:06.436Z,9.70
2022-10-29T14:46:34.999Z,10.65
2022-10-29T14:49:14.471Z,10.18
2022-10-29T14:51:48.180Z,11.25
2022-10-29T14:54:19.885Z,10.60
2022-10-29T14:56:49.314Z,11.38
2022-10-29T14:59:20.073Z,11.13
2022-10-29T15:01:49.503Z,9.98
2022-10-29T15:04:21.075Z,10.98
2022-10-29T15:06:48.517Z,10.35
2022-10-29T15:09:20.498Z,9.90
2022-10-29T15:11:59.953Z,10.90
2022-10-29T15:14:47.223Z,9.40
2022-10-29T15:17:25.298Z,10.90
2022-10-29T15:19:54.558Z,9.75
2022-10-29T15:22:27.852Z,9.95
2022-10-29T15:24:55.204Z,9.68
2022-10-29T15:27:23.136Z,10.52
2022-10-29T15:29:50.288Z,11.25
2022-10-29T15:32:18.427Z,10.32
2022-10-29T15:34:50.222Z,10.15
2022-10-29T15:37:20.606Z,12.02
2022-10-29T15:39:56.689Z,12.30
2022-10-29T15:42:25.791Z,15.93
2022-10-29T15:45:08.395Z,14.35
2022-10-29T15:47:35.653Z,12.35
2022-10-29T15:50:02.983Z,12.70
2022-10-29T15:52:59.340Z,11.80
2022-10-29T15:55:28.541Z,11.73
2022-10-29T15:58:06.542Z,12.98
2022-10-29T16:00:33.922Z,12.15
2022-10-29T16:03:07.421Z,12.75
2022-10-29T16:05:34.643Z,16.35
2022-10-29T16:08:03.706Z,13.13
2022-10-29T16:10:31.039Z,14.07
2022-10-29T16:12:58.946Z,14.48
2022-10-29T16:17:54.726Z,13.48
2022-10-29T16:20:22.072Z,13.55
2022-10-29T16:22:49.895Z,11.57
2022-10-29T16:25:19.841Z,12.45
2022-10-29T16:27:46.971Z,13.20
2022-10-29T16:30:14.229Z,12.73
2022-10-29T16:32:41.491Z,13.38
2022-10-29T16:35:22.123Z,12.88
2022-10-29T16:37:49.809Z,13.15
2022-10-29T16:40:17.544Z,13.40
2022-10-29T16:42:45.165Z,13.60
2022-10-29T16:45:23.104Z,13.48
2022-10-29T16:47:53.427Z,14.38
2022-10-29T16:50:21.974Z,13.60
2022-10-29T16:52:49.362Z,13.93
2022-10-29T16:55:16.478Z,13.85
2022-10-29T16:57:43.629Z,15.68
2022-10-29T17:00:11.167Z,14.23
2022-10-29T17:02:40.592Z,14.82
2022-10-29T17:05:07.982Z,14.68
2022-10-29T17:07:35.190Z,14.18
2022-10-29T17:10:02.583Z,14.60
2022-10-29T17:12:29.746Z,14.88
2022-10-29T17:14:56.882Z,15.38
2022-10-29T17:17:24.022Z,16.50
2022-10-29T17:19:51.220Z,15.43
2022-10-29T17:22:18.384Z,16.30
2022-10-29T17:24:45.774Z,17.02
2022-10-29T17:27:13.451Z,16.52
2022-10-29T17:29:40.649Z,18.25
2022-10-29T17:32:08.532Z,17.63
2022-10-29T17:34:35.721Z,18.95
2022-10-29T17:37:02.905Z,17.50
2022-10-29T17:39:30.244Z,16.63
2022-10-29T17:41:57.457Z,16.45
2022-10-29T17:44:26.385Z,15.43
2022-10-29T17:46:54.060Z,16.05
2022-10-29T17:49:21.994Z,16.23
2022-10-29T17:51:49.179Z,16.50
2022-10-29T17:54:16.857Z,15.50
2022-10-29T17:56:44.015Z,16.98
2022-10-29T17:59:11.155Z,13.80
2022-10-29T18:01:38.431Z,15.15
2022-10-29T18:04:06.525Z,15.27
2022-10-29T18:06:33.783Z,16.10
2022-10-29T18:09:01.758Z,14.07
2022-10-29T18:11:29.040Z,15.00
2022-10-29T18:13:56.906Z,15.13
2022-10-29T18:16:25.854Z,16.00
2022-10-29T18:19:01.407Z,15.73
2022-10-29T18:21:29.646Z,16.88
2022-10-29T18:23:56.894Z,16.05
2022-10-29T18:26:26.858Z,16.48
2022-10-29T18:28:55.065Z,17.45
2022-10-29T18:31:24.331Z,16.55
2022-10-29T18:33:51.579Z,18.45
2022-10-29T18:36:18.841Z,18.23
2022-10-29T18:38:50.711Z,16.52
2022-10-29T18:41:17.925Z,20.05
2022-10-29T18:43:45.186Z,20.02
2022-10-29T18:46:12.602Z,17.88
2022-10-29T18:48:40.742Z,19.23
2022-10-29T18:51:09.268Z,19.50
2022-10-29T18:53:37.007Z,18.88
2022-10-29T18:56:05.741Z,18.95
2022-10-29T18:58:33.512Z,20.58
2022-10-29T19:01:05.398Z,20.48
2022-10-29T19:03:32.578Z,19.17
2022-10-29T19:06:07.325Z,20.17
2022-10-29T19:08:35.253Z,21.13
2022-10-29T19:11:03.771Z,18.25
2022-10-29T19:13:31.252Z,18.92
2022-10-29T19:16:02.440Z,19.08
2022-10-29T19:18:30.459Z,17.58
2022-10-29T19:21:17.695Z,17.88
2022-10-29T19:23:46.321Z,19.83
2022-10-29T19:26:14.422Z,19.48
2022-10-29T19:28:42.057Z,19.30
2022-10-29T19:31:19.652Z,18.67
2022-10-29T19:33:51.090Z,20.33
2022-10-29T19:36:18.529Z,18.35
2022-10-29T19:38:45.805Z,18.55
2022-10-29T19:41:13.192Z,18.50
2022-10-29T19:43:40.684Z,19.02
2022-10-29T19:46:08.882Z,19.80
2022-10-29T19:48:36.307Z,20.48
2022-10-29T19:51:03.538Z,20.13
2022-10-29T19:53:30.778Z,20.10
2022-10-29T19:55:58.211Z,20.80
2022-10-29T19:58:26.982Z,23.13
2022-10-29T20:00:54.685Z,21.40
2022-10-29T20:03:21.933Z,21.13
2022-10-29T20:05:50.164Z,27.05
2022-10-29T20:08:17.300Z,22.90
2022-10-29T20:10:44.435Z,24.08
2022-10-29T20:13:11.634Z,23.70
2022-10-29T20:15:40.114Z,23.15
2022-10-29T20:18:07.350Z,25.00
2022-10-29T20:20:34.806Z,23.27
2022-10-29T20:23:02.124Z,23.02
2022-10-29T20:25:29.543Z,23.38
2022-10-29T20:27:58.032Z,21.70
2022-10-29T20:30:25.259Z,21.60
2022-10-29T20:32:52.390Z,21.20
2022-10-29T20:35:19.582Z,21.58
2022-10-29T20:37:46.722Z,21.88
2022-10-29T20:40:14.052Z,22.20
2022-10-29T20:42:41.324Z,20.52
2022-10-29T20:45:08.632Z,21.23
2022-10-29T20:47:35.755Z,22.10
2022-10-29T20:50:02.942Z,20.40
2022-10-29T20:52:30.428Z,19.90
2022-10-29T20:54:57.582Z,20.00
2022-10-29T20:57:24.730Z,20.67
2022-10-29T20:59:52.178Z,20.70
2022-10-29T21:02:19.514Z,19.60
2022-10-29T21:04:47.091Z,22.10
2022-10-29T21:07:14.219Z,20.15
2022-10-29T21:09:41.363Z,20.75
2022-10-29T21:12:08.611Z,19.17
2022-10-29T21:14:35.756Z,17.98
2022-10-29T21:17:02.896Z,20.15
2022-10-29T21:19:30.628Z,20.60
2022-10-29T21:21:57.747Z,19.63
2022-10-29T21:24:24.885Z,17.92
2022-10-29T21:26:52.039Z,19.35
2022-10-29T21:29:19.246Z,19.98
2022-10-29T21:31:49.536Z,18.92
2022-10-29T21:34:16.802Z,18.98
2022-10-29T21:36:44.052Z,18.25
2022-10-29T21:39:11.248Z,19.85
2022-10-29T21:41:38.456Z,19.15
2022-10-29T21:44:05.742Z,20.75
2022-10-29T21:46:32.902Z,20.20
2022-10-29T21:49:00.149Z,21.27
2022-10-29T21:51:27.299Z,21.40
2022-10-29T21:53:55.101Z,24.13
2022-10-29T21:56:22.356Z,24.85
2022-10-29T21:58:52.318Z,21.95
2022-10-29T22:01:19.948Z,24.33
2022-10-29T22:03:47.957Z,26.45
2022-10-29T22:06:15.134Z,28.15
2022-10-29T22:08:42.375Z,28.95
2022-10-29T22:11:10.191Z,28.58
2022-10-29T22:13:37.581Z,29.42
2022-10-29T22:16:05.722Z,28.77
2022-10-29T22:18:33.393Z,28.08
2022-10-29T22:21:04.709Z,27.63
2022-10-29T22:23:31.839Z,27.48
2022-10-29T22:25:59.017Z,24.95
2022-10-29T22:28:26.239Z,26.92
2022-10-29T22:31:00.297Z,25.77
2022-10-29T22:33:27.980Z,25.92
2022-10-29T22:35:55.351Z,25.85
2022-10-29T22:38:22.680Z,25.90
2022-10-29T22:40:50.050Z,24.65
2022-10-29T22:43:17.217Z,25.70
2022-10-29T22:45:45.933Z,25.20
2022-10-29T22:48:13.106Z,24.58
2022-10-29T22:50:40.313Z,23.02
2022-10-29T22:53:07.614Z,21.17
2022-10-29T22:55:34.777Z,21.25
2022-10-29T22:58:01.923Z,21.55
2022-10-29T23:00:29.126Z,21.55
2022-10-29T23:02:56.704Z,20.90
2022-10-29T23:05:24.218Z,21.10
2022-10-29T23:07:51.372Z,21.05
2022-10-29T23:10:18.643Z,22.30
2022-10-29T23:12:45.986Z,21.85
2022-10-29T23:15:13.907Z,20.98
2022-10-29T23:17:41.089Z,20.67
2022-10-29T23:20:08.431Z,19.23
2022-10-29T23:22:35.587Z,19.00
2022-10-29T23:25:02.710Z,18.85
2022-10-29T23:27:29.904Z,18.23
2022-10-29T23:29:57.036Z,18.80
2022-10-29T23:32:24.235Z,18.35
2022-10-29T23:34:51.438Z,17.90
2022-10-29T23:37:18.871Z,16.80
2022-10-29T23:39:46.001Z,15.45
2022-10-29T23:44:54.252Z,15.68
2022-10-29T23:47:21.928Z,15.07
2022-10-29T23:49:49.460Z,16.15
2022-10-29T23:52:16.702Z,15.13
2022-10-29T23:54:43.818Z,16.00
2022-10-29T23:57:10.944Z,15.13
2022-10-29T23:59:38.138Z,14.98
